Big Bear Station Historical Data
Daily Summary for October 25, 2017 Units:  English    Metric   Both
« Previous Day
Next Day »
Daily Weekly Monthly Yearly Custom
  High: Low: Average:
Temperature: 72.1 °F 39.0 °F 52.1 °F
Dew Point: 38.4 °F 22.5 °F 28.2 °F
Humidity: 73 % 21 % 43 %
Wind Speed: 5.8 mph 0.0 mph 1.1 mph
Wind Gust: -999.0 mph - -
Wind:- - West
Pressure: 23.72 in 23.57 in -
Precipitation: 0.00 in    
Historical Graphs
 
 
Tabular Data for October 25, 2017
Time Temperature Dew Point Pressure Wind Wind Speed Wind Gust Humidity Rainfall Rate (Hourly)
00:02 43.5 °F 22.5 °F 23.72 in SSE 2.2 mph -999.0 mph 43 % 0 in
00:17 43.9 °F 22.8 °F 23.71 in SSW 2.2 mph -999.0 mph 43 % 0 in
00:32 43.7 °F 23.7 °F 23.71 in SSW 2.2 mph -999.0 mph 45 % 0 in
00:48 44.6 °F 24.6 °F 23.71 in SSE 3.2 mph -999.0 mph 45 % 0 in
01:03 44.6 °F 24.6 °F 23.71 in Calm   -999.0 mph 45 % 0 in
01:19 45.0 °F 23.8 °F 23.71 in WSW 1.7 mph -999.0 mph 43 % 0 in
01:34 45.5 °F 23.7 °F 23.71 in Calm   -999.0 mph 42 % 0 in
01:49 45.7 °F 23.9 °F 23.71 in Calm   -999.0 mph 42 % 0 in
02:04 45.5 °F 23.7 °F 23.71 in SSE 1.7 mph -999.0 mph 42 % 0 in
02:20 44.8 °F 23.1 °F 23.70 in SSE 1.7 mph -999.0 mph 42 % 0 in
02:35 43.7 °F 24.8 °F 23.69 in SSE 2.2 mph -999.0 mph 47 % 0 in
02:50 43.2 °F 29.0 °F 23.69 in Calm   -999.0 mph 57 % 0 in
03:05 42.8 °F 24.9 °F 23.69 in Calm   -999.0 mph 49 % 0 in
03:20 42.3 °F 24.5 °F 23.68 in Calm   -999.0 mph 49 % 0 in
03:36 41.9 °F 24.6 °F 23.67 in SW 1.1 mph -999.0 mph 50 % 0 in
03:51 41.0 °F 25.2 °F 23.67 in Calm   -999.0 mph 53 % 0 in
04:06 40.8 °F 28.0 °F 23.67 in Calm   -999.0 mph 60 % 0 in
04:21 40.6 °F 28.6 °F 23.67 in Calm   -999.0 mph 62 % 0 in
04:36 40.1 °F 26.9 °F 23.67 in Calm   -999.0 mph 59 % 0 in
04:52 40.1 °F 25.2 °F 23.66 in Calm   -999.0 mph 55 % 0 in
05:07 40.3 °F 25.4 °F 23.66 in Calm   -999.0 mph 55 % 0 in
05:22 40.3 °F 27.1 °F 23.66 in Calm   -999.0 mph 59 % 0 in
05:37 40.3 °F 28.7 °F 23.66 in Calm   -999.0 mph 63 % 0 in
05:52 40.3 °F 26.3 °F 23.66 in Calm   -999.0 mph 57 % 0 in
06:08 40.5 °F 23.8 °F 23.66 in Calm   -999.0 mph 51 % 0 in
06:39 39.6 °F 23.9 °F 23.66 in Calm   -999.0 mph 53 % 0 in
06:54 39.2 °F 24.8 °F 23.66 in Calm   -999.0 mph 56 % 0 in
07:09 39.6 °F 29.2 °F 23.66 in Calm   -999.0 mph 66 % 0 in
07:24 39.2 °F 30.2 °F 23.66 in Calm   -999.0 mph 70 % 0 in
07:39 39.2 °F 31.3 °F 23.66 in Calm   -999.0 mph 73 % 0 in
07:55 39.2 °F 30.6 °F 23.66 in Calm   -999.0 mph 71 % 0 in
08:10 39.0 °F 30.0 °F 23.66 in Calm   -999.0 mph 70 % 0 in
08:25 39.7 °F 31.1 °F 23.66 in Calm   -999.0 mph 71 % 0 in
08:40 40.8 °F 32.5 °F 23.66 in Calm   -999.0 mph 72 % 0 in
08:56 41.9 °F 32.1 °F 23.66 in Calm   -999.0 mph 68 % 0 in
09:11 43.0 °F 32.8 °F 23.66 in Calm   -999.0 mph 67 % 0 in
09:26 44.8 °F 35.6 °F 23.66 in Calm   -999.0 mph 70 % 0 in
09:41 46.4 °F 35.7 °F 23.66 in Calm   -999.0 mph 66 % 0 in
09:56 49.5 °F 36.6 °F 23.66 in Calm   -999.0 mph 61 % 0 in
10:12 51.4 °F 30.2 °F 23.66 in Calm   -999.0 mph 44 % 0 in
10:27 57.4 °F 32.6 °F 23.66 in Calm   -999.0 mph 39 % 0 in
10:42 60.8 °F 33.0 °F 23.65 in Calm   -999.0 mph 35 % 0 in
10:57 63.1 °F 38.4 °F 23.65 in Calm   -999.0 mph 40 % 0 in
11:12 65.8 °F 30.9 °F 23.64 in Calm   -999.0 mph 27 % 0 in
11:28 67.5 °F 31.4 °F 23.64 in NW 1.1 mph -999.0 mph 26 % 0 in
11:43 68.7 °F 29.4 °F 23.64 in NW 2.7 mph -999.0 mph 23 % 0 in
11:58 69.4 °F 28.9 °F 23.63 in NW 2.2 mph -999.0 mph 22 % 0 in
12:13 69.8 °F 30.3 °F 23.63 in North 3.7 mph -999.0 mph 23 % 0 in
12:29 70.0 °F 33.5 °F 23.62 in WNW 3.2 mph -999.0 mph 26 % 0 in
12:44 70.7 °F 32.1 °F 23.61 in NW 4.7 mph -999.0 mph 24 % 0 in
12:59 71.4 °F 29.4 °F 23.61 in NNE 3.7 mph -999.0 mph 21 % 0 in
13:14 72.1 °F 30.0 °F 23.60 in NW 4.7 mph -999.0 mph 21 % 0 in
13:30 71.8 °F 29.8 °F 23.60 in NNW 2.7 mph -999.0 mph 21 % 0 in
13:45 71.8 °F 30.9 °F 23.59 in NNW 3.2 mph -999.0 mph 22 % 0 in
14:00 71.2 °F 31.5 °F 23.59 in NNW 3.2 mph -999.0 mph 23 % 0 in
14:15 70.2 °F 29.6 °F 23.59 in NW 5.8 mph -999.0 mph 22 % 0 in
14:30 69.6 °F 30.2 °F 23.58 in SW 4.7 mph -999.0 mph 23 % 0 in
14:46 69.6 °F 29.1 °F 23.58 in NW 3.7 mph -999.0 mph 22 % 0 in
15:01 70.2 °F 28.4 °F 23.58 in NNW 3.2 mph -999.0 mph 21 % 0 in
15:16 69.4 °F 30.0 °F 23.58 in NNW 4.2 mph -999.0 mph 23 % 0 in
15:31 68.4 °F 31.2 °F 23.57 in WNW 3.7 mph -999.0 mph 25 % 0 in
15:47 68.0 °F 28.8 °F 23.57 in NNW 5.8 mph -999.0 mph 23 % 0 in
16:02 67.8 °F 28.6 °F 23.57 in NW 3.7 mph -999.0 mph 23 % 0 in
16:18 67.3 °F 30.3 °F 23.57 in WNW 2.7 mph -999.0 mph 25 % 0 in
16:33 66.6 °F 28.7 °F 23.57 in WNW 3.7 mph -999.0 mph 24 % 0 in
16:49 66.2 °F 27.3 °F 23.57 in NNW 5.3 mph -999.0 mph 23 % 0 in
17:04 65.8 °F 28.0 °F 23.57 in NNW 2.2 mph -999.0 mph 24 % 0 in
17:19 64.8 °F 27.1 °F 23.57 in Calm   -999.0 mph 24 % 0 in
17:34 63.3 °F 26.9 °F 23.57 in Calm   -999.0 mph 25 % 0 in
17:49 62.1 °F 25.8 °F 23.57 in Calm   -999.0 mph 25 % 0 in
18:05 60.4 °F 25.3 °F 23.57 in Calm   -999.0 mph 26 % 0 in
18:20 58.6 °F 25.6 °F 23.57 in Calm   -999.0 mph 28 % 0 in
18:35 57.2 °F 24.4 °F 23.57 in Calm   -999.0 mph 28 % 0 in
18:50 55.6 °F 24.6 °F 23.57 in Calm   -999.0 mph 30 % 0 in
19:05 54.5 °F 24.5 °F 23.57 in Calm   -999.0 mph 31 % 0 in
19:21 53.2 °F 26.2 °F 23.57 in Calm   -999.0 mph 35 % 0 in
19:36 52.0 °F 26.5 °F 23.57 in Calm   -999.0 mph 37 % 0 in
19:51 50.7 °F 24.0 °F 23.57 in Calm   -999.0 mph 35 % 0 in
20:06 49.8 °F 25.8 °F 23.57 in Calm   -999.0 mph 39 % 0 in
20:21 49.3 °F 28.3 °F 23.57 in Calm   -999.0 mph 44 % 0 in
20:37 48.4 °F 29.1 °F 23.57 in Calm   -999.0 mph 47 % 0 in
20:52 47.7 °F 30.4 °F 23.57 in Calm   -999.0 mph 51 % 0 in
21:07 47.3 °F 30.6 °F 23.57 in Calm   -999.0 mph 52 % 0 in
21:22 46.4 °F 29.7 °F 23.58 in Calm   -999.0 mph 52 % 0 in
21:37 46.0 °F 29.4 °F 23.58 in Calm   -999.0 mph 52 % 0 in
21:53 45.3 °F 26.8 °F 23.58 in Calm   -999.0 mph 48 % 0 in
22:08 44.8 °F 28.2 °F 23.58 in Calm   -999.0 mph 52 % 0 in
22:23 44.8 °F 28.2 °F 23.58 in Calm   -999.0 mph 52 % 0 in
22:38 43.9 °F 27.4 °F 23.58 in Calm   -999.0 mph 52 % 0 in
22:54 43.3 °F 29.5 °F 23.58 in Calm   -999.0 mph 58 % 0 in
23:09 43.3 °F 29.5 °F 23.58 in Calm   -999.0 mph 58 % 0 in
23:24 42.6 °F 28.4 °F 23.58 in Calm   -999.0 mph 57 % 0 in
23:39 42.3 °F 25.4 °F 23.58 in Calm   -999.0 mph 51 % 0 in
23:54 41.7 °F 25.4 °F 23.58 in Calm   -999.0 mph 52 % 0 in
Big Bear CA Weather
Compliments of Weather Underground - 1.5 mb